Tiempo atmosférico en la estación meteorológica de Écija, Sevilla (130 m.)

Fecha
DESCASC
Temp. máxima en grados centígrados (hora)
DESCASC
Temp. mínima en grados centígrados (hora)
DESCASC
Temp. media en grados centígrados
DESCASC
Racha de viento máxima en m/sg (hora)
DESCASC
Velocidad máxima media en intervalos de 10 minutos(hora)
DESCASC
Precipitaciones diarias en mm
DESCASC
Precipitaciones de 00:00 a 06:00 en mm
DESCASC
Precipitaciones de 06:00 a 12:00 en mm
DESCASC
Precipitaciones de 12:00 a 18:00 en mm
DESCASC
Precipitaciones de 18:00 a 24:00 en mm
DESCASC
10-12-2017 16.8 (16:00) 9.8 (03:40) 13.3 15.83 (23:20) 10.83 (23:59) 0 0 0 0 0
09-12-2017 15.8 (16:00) 5.9 (03:30) 10.9 5.83 (17:20) 4.44 (17:10) 0 0 0 0 0
08-12-2017 17.8 (16:10) -0.1 (07:10) 8.8 3.89 (18:50) 2.78 (18:30) 0 0 0 0 0
07-12-2017 15.8 (15:40) 0 (00:00) 7.9 4.17 (12:30) 2.5 (12:20) 0 0 0 0 0
06-12-2017 15.8 (15:30) 0.8 (00:00) 8.3 5.56 (13:10) 3.61 (13:20) 0 0 0 0 0
05-12-2017 15.2 (16:20) 0.1 (00:00) 7.6 5.83 (12:50) 3.33 (15:00) 0 0 0 0 0
04-12-2017 14.3 (16:00) -0.9 (-00:0) 6.7 6.39 (11:30) 4.44 (12:00) 0 0 0 0 0
03-12-2017 11.6 (16:00) -1.5 (-00:0) 5.1 11.11 (13:00) 7.22 (13:50) 0 0 0 0 0
02-12-2017 12 (15:50) 1.2 (00:00) 6.6 7.78 (12:50) 5.56 (12:40) 0 0 0 0 0
01-12-2017 13.4 (16:30) -0.4 (00:00) 6.5 8.06 (15:50) 5 (16:20) 0 0 0 0 0
30-11-2017 14.3 (15:20) 4.1 (00:00) 9.2 8.89 (13:00) 5.28 (13:00) 0 0 0 0 0
29-11-2017 -- (--) -- (--) -- -- (--) -- (--) -- -- -- 0.6 0
28-11-2017 18.7 (16:40) 11.1 (00:00) 14.9 4.17 (08:50) 3.06 (11:00) 2.1 0.8 0.1 0 1.2
27-11-2017 20.8 (14:50) 7.6 (00:00) 14.2 5.56 (16:00) 3.89 (16:20) 0 0 0 0 0
26-11-2017 21.4 (15:10) 8.1 (00:00) 14.8 8.33 (11:40) 6.11 (12:00) 0 0 0 0 0
25-11-2017 19.6 (16:50) 6.2 (00:00) 12.9 4.17 (14:10) 2.5 (14:20) 0 0 0 0 0
24-11-2017 25.2 (15:50) 6.8 (00:00) 16 5.28 (15:00) 2.5 (16:10) 0 0 0 0 0
23-11-2017 24.2 (16:00) 4.6 (00:00) 14.4 3.61 (15:30) 1.94 (00:50) 0 0 0 0 0
22-11-2017 22.8 (16:00) 2.5 (00:00) 12.6 5.83 (16:30) 2.78 (17:00) 0 0 0 0 0
21-11-2017 24 (15:50) 3.6 (00:00) 13.8 4.17 (12:30) 2.78 (12:20) 0 0 0 0 0
20-11-2017 22.8 (15:40) 4.5 (00:00) 13.6 5.83 (14:40) 3.33 (14:40) 0 0 0 0 0
19-11-2017 22.2 (16:10) 3.8 (00:00) 13 5 (11:10) 3.89 (11:10) 0 0 0 0 0
18-11-2017 22.7 (15:50) 3.2 (00:00) 13 4.44 (13:10) 2.78 (12:50) 0 0 0 0 0
17-11-2017 22.2 (16:10) 3.4 (00:00) 12.8 3.06 (13:30) 2.22 (23:20) 0 0 0 0 0
16-11-2017 21.7 (16:50) 2.8 (00:00) 12.3 3.61 (15:00) 2.5 (18:20) 0 0 0 0 0
15-11-2017 20.7 (16:50) 4.1 (00:00) 12.4 5 (12:30) 3.06 (12:20) 0 0 0 0 0

Gráficas

Temp. máximas Temp. mínimas Temp. medias Precipitaciones Rachas de viento máximas Velocidades máximas media en intervalos de 10 minutos

Datos horarios

Fecha y hora oficial Temperatura (ºC) Velocidad del viento (km/h) Dirección del viento Racha (km/h) Dirección de racha Precipitación (mm) Presión (hPa) Tendencia (hPa) Humedad (%)
2017-12-14 23:00:00 11.3 4 Oeste 11 Sudoeste 0 1006.8 -0.7 92
2017-12-14 22:00:00 11.1 6 Sur 9 Sur 0 1007.4 -0.5 91
2017-12-14 21:00:00 11.3 4 Sur 22 Sudoeste 0 1007.6 -0.2 89
2017-12-14 20:00:00 11.7 14 Sudoeste 19 Sudoeste 0 1007.5 -0.5 82
2017-12-14 19:00:00 12.5 9 Oeste 17 Oeste 0 1007.9 -0.2 77
2017-12-14 18:00:00 12.8 6 Oeste 13 Oeste 0 1007.8 -0.7 70
2017-12-14 17:00:00 14.3 8 Sudoeste 14 Sudoeste 0 1008 -1.8 60
2017-12-14 16:00:00 14.4 8 Oeste 15 Sudoeste 0 1008.1 -2.9 60
2017-12-14 15:00:00 14.4 4 Sudeste 15 Sur 0 1008.5 -3.8 57
2017-12-14 14:00:00 14 4 Sur 8 Sudoeste 0 1009.8 -- 57
2017-12-14 13:00:00 11.7 2 Sur 6 Sudeste 0 1011 -- 68
2017-12-14 12:00:00 8.5 0 Calma -- -- -- 1012.3 0 79
2017-12-14 11:00:00 -- -- -- -- -- -- -- -- --
2017-12-14 10:00:00 -- -- -- -- -- -- -- -- --
2017-12-14 09:00:00 2.3 0 Calma 6 Sur 0 1012.3 0.5 99
2017-12-14 08:00:00 1.7 4 Sur 6 Sur 0 1012.1 -0.2 99
2017-12-14 07:00:00 1.4 2 Oeste 5 Sudoeste 0 1012.2 -0.6 99
2017-12-14 06:00:00 0.9 3 Sudeste 5 Sudeste 0 1011.8 -1 98
2017-12-14 05:00:00 1.6 2 Sur 4 Sur 0 1012.3 -0.7 97
2017-12-14 04:00:00 2 0 Calma 5 Sudeste 0 1012.8 -0.6 97
2017-12-14 03:00:00 2.8 2 Sudoeste 4 Sudoeste 0 1012.8 -0.6 96
2017-12-14 02:00:00 3 0 Calma 4 Sudeste 0 1013 -0.5 94
2017-12-14 01:00:00 4 3 Sur 7 Sur 0 1013.4 -0.1 92
2017-12-14 00:00:00 4.2 0 Calma 3 Este 0 1013.4 0.1 89
2017-12-13 23:00:00 5.4 3 Sudeste 6 Sur 0 1013.5 0.6 87
2017-12-13 22:00:00 5.7 2 Sur 3 Sudeste 0 1013.5 1.1 81
2017-12-13 21:00:00 6.9 0 Calma 5 Sudoeste 0 1013.3 1.1 73
2017-12-13 20:00:00 7.8 0 Calma 6 Noroeste 0 1012.9 0.6 68
2017-12-13 19:00:00 9.2 4 Noroeste 8 Noroeste 0 1012.4 -0.2 63
2017-12-13 18:00:00 11 5 Noroeste 9 Norte 0 1012.2 -0.4 59
2017-12-13 17:00:00 14.1 3 Nordeste 9 Norte 0 1012.3 -1.1 44
2017-12-13 16:00:00 14.2 3 Nordeste 10 Nordeste 0 1012.6 -1.8 42
2017-12-13 15:00:00 13.6 4 Este 11 Este 0 1012.6 -2.5 46
2017-12-13 14:00:00 12.4 8 Este 13 Este 0 1013.4 -1.5 49
2017-12-13 13:00:00 11.2 3 Nordeste 12 Norte 0 1014.4 0.4 55
2017-12-13 12:00:00 9 3 Nordeste 10 Nordeste 0 1015.1 1.3 61
2017-12-13 11:00:00 6.5 4 Nordeste 9 Nordeste 0 1014.9 1.1 74
2017-12-13 10:00:00 4.3 0 Calma 5 Este 0 1014 1.2 84
2017-12-13 09:00:00 1.4 0 Calma 6 Norte 0 1013.8 1.6 98
2017-12-13 08:00:00 0.3 2 Noroeste 5 Noroeste 0 1013.8 1.7 98
2017-12-13 07:00:00 0.7 0 Calma 5 Norte 0 1012.8 0.9 98
2017-12-13 06:00:00 0.7 0 Calma 5 Noroeste 0 1012.2 0.4 98
2017-12-13 05:00:00 1.3 3 Norte 5 Noroeste 0 1012.1 1.1 98
2017-12-13 04:00:00 1.4 0 Calma 5 Sudeste 0 1011.9 1.3 98
2017-12-13 03:00:00 1.4 4 Sudeste 6 Sudeste 0 1011.8 1.3 96
2017-12-13 02:00:00 1.9 3 Sur 7 Sur 0 1011 1.3 94
2017-12-13 01:00:00 3 3 Sudoeste 5 Sudoeste 0 1010.6 1.5 93
2017-12-13 00:00:00 3.2 0 Calma 4 Este 0 1010.5 2 90
2017-12-12 23:00:00 4.3 0 Calma 2 Norte 0 1009.7 2.3 88
2017-12-12 22:00:00 4.9 0 Calma 9 Sudoeste 0 1009.1 2.4 84
2017-12-12 21:00:00 5.5 0 Calma 12 Sur 0 1008.5 2.8 79
2017-12-12 20:00:00 7.4 0 Calma 8 Sudoeste 0 1007.4 2.4 67
2017-12-12 19:00:00 8.8 0 Calma 6 Sudeste 0 1006.7 2.4 61
2017-12-12 18:00:00 10.4 3 Sudeste 8 Este 0 1005.7 1.8 57
2017-12-12 17:00:00 12.4 6 Este 16 Este 0 1005 1.5 43
2017-12-12 16:00:00 12.6 6 Nordeste 14 Nordeste 0 1004.3 0.4 39
2017-12-12 15:00:00 12.3 9 Este 18 Nordeste 0 1003.9 0 44
2017-12-12 14:00:00 11.7 11 Nordeste 20 Este 0 1003.5 0 43
2017-12-12 13:00:00 11.3 12 Este 20 Este 0 1003.9 1.4 52
2017-12-12 12:00:00 9.7 3 Norte 12 Nordeste 0 1003.9 2.5 64
2017-12-12 11:00:00 7.9 6 Nordeste 11 Este 0 1003.5 3 70
2017-12-12 10:00:00 6.8 0 Calma 15 Norte 0 1002.5 3.3 76
2017-12-12 09:00:00 4.6 7 Norte 13 Norte 0 1001.4 3.6 81
2017-12-12 08:00:00 3.4 3 Norte 15 Norte 0 1000.5 3.2 86
2017-12-12 07:00:00 4.6 11 Norte 21 Norte 0 999.2 2.7 81
2017-12-12 06:00:00 5 17 Noroeste 24 Noroeste 0 997.8 1.9 81
2017-12-12 05:00:00 5.2 11 Noroeste 20 Noroeste 0 997.3 2.1 87
2017-12-12 04:00:00 5.3 9 Noroeste 14 Noroeste 0 996.5 1.6 89
2017-12-12 03:00:00 5.8 5 Noroeste 15 Oeste 0 995.9 1.7 90
2017-12-12 02:00:00 5.9 15 Oeste 19 Oeste 0 995.2 1.9 89
2017-12-12 01:00:00 6.6 15 Oeste 19 Oeste 0 994.9 2.5 87
2017-12-12 00:00:00 6.9 13 Oeste 23 Oeste 0 994.2 2.5 87
2017-12-11 23:00:00 7.6 17 Oeste 24 Oeste 0 993.3 2.3 83
2017-12-11 22:00:00 8.8 15 Oeste 23 Sudoeste 0 992.4 2.4 83
2017-12-11 21:00:00 8.8 14 Oeste 46 Oeste 1.2 991.7 2.2 82
2017-12-11 20:00:00 9.9 21 Sudoeste 29 Oeste 0 991 1.8 73
2017-12-11 19:00:00 9.8 12 Sudoeste 18 Sudoeste 0 990 1.2 76
2017-12-11 18:00:00 10.8 14 Sudoeste 26 Sudoeste 0 989.5 1 73
2017-12-11 17:00:00 12.3 16 Sudoeste 35 Oeste 0 989.2 0.5 70
2017-12-11 16:00:00 12.3 21 Sudoeste 35 Oeste 0 988.8 -- 70
2017-12-11 15:00:00 12.1 21 Sudoeste 34 Sudoeste 0 988.5 -1.3 73
2017-12-11 14:00:00 11.5 22 Sudoeste 34 Sudoeste 0 988.7 -1.2 85
2017-12-11 13:00:00 -- -- -- -- -- -- -- -- --
2017-12-11 12:00:00 8.8 20 Oeste 33 Sudoeste 0 989.8 1.4 99
2017-12-11 11:00:00 8 11 Sudoeste 21 Sudoeste 0 989.9 2.9 99
2017-12-11 10:00:00 7.5 13 Sudoeste 21 Sudoeste 2.5 988.8 5.1 99
2017-12-11 09:00:00 7.4 12 Sudoeste -- -- -- 988.4 6.5 99
2017-12-11 08:00:00 7.2 25 Noroeste 97 Noroeste 6.8 987 3 99
2017-12-11 07:00:00 10.3 29 Noroeste -- -- -- 983.7 -- 99
2017-12-11 06:00:00 14.7 51 Sudoeste 81 Sudoeste 1.1 981.9 -- 86
2017-12-11 05:00:00 15.3 45 Sudoeste -- -- -- 984 -- 81
2017-12-11 04:00:00 -- -- -- -- -- -- -- -- --
2017-12-11 03:00:00 -- -- -- -- -- -- -- -- --
2017-12-11 02:00:00 -- -- -- -- -- -- -- -- --
2017-12-11 01:00:00 15.2 35 Sudoeste 59 Sudoeste 0 992.5 -3.8 87
2017-12-11 00:00:00 15.2 39 Sudoeste 57 Oeste 0 993.8 -3.9 88
2017-12-10 23:00:00 15 35 Sudoeste 53 Sudoeste 0 995.1 -3.8 88
2017-12-10 22:00:00 14.7 26 Sudoeste 39 Sudoeste 0 996.3 -3.6 90
2017-12-10 21:00:00 14.4 21 Sudoeste 33 Sudoeste 0 997.7 -2.8 87
2017-12-10 20:00:00 14.5 23 Sudoeste 35 Sudoeste 0 998.9 -2.5 82
2017-12-10 19:00:00 14.5 17 Sudoeste 28 Sudoeste 0 999.9 -2.6 77
2017-12-10 18:00:00 15 20 Sudoeste 34 Sudoeste 0 1000.5 -3.9 73
2017-12-10 17:00:00 16.1 23 Sudoeste 39 Sudoeste 0 1001.4 -4.6 66
2017-12-10 16:00:00 16.5 23 Sudoeste 37 Sudoeste 0 1002.5 -4.1 68
2017-12-10 15:00:00 16.2 22 Sudoeste 33 Oeste 0 1004.4 -3.7 70
2017-12-10 14:00:00 15.3 18 Oeste 33 Oeste 0 1006 -2.9 76
2017-12-10 13:00:00 15.2 21 Oeste 31 Sudoeste 0 1006.6 -2.7 77
2017-12-10 12:00:00 14 24 Sudoeste 34 Oeste 0 1008.1 -0.9 87
2017-12-10 11:00:00 11.6 19 Oeste 31 Oeste 0 1008.9 -0.1 99
2017-12-10 10:00:00 11.8 17 Oeste 26 Oeste 0 1009.3 0.1 99
2017-12-10 09:00:00 11 0 Calma 13 Sudoeste 0 1009 -0.6 99
2017-12-10 08:00:00 11.5 13 Sudoeste 23 Oeste 0 1009 -1.4 99
2017-12-10 07:00:00 10.6 6 Sudoeste 14 Sudoeste 0 1009.2 -1.2 99
2017-12-10 06:00:00 10.7 0 Calma 12 Sudeste 0 1009.6 -1 99
2017-12-10 05:00:00 10 3 Este 9 Nordeste 0 1010.4 -0.5 99
2017-12-10 04:00:00 10.8 0 Calma 6 Nordeste 0 1010.4 -1.5 99
2017-12-10 03:00:00 10.1 0 Calma 4 Sur 0 1010.6 -1.5 98
2017-12-10 02:00:00 10.4 2 Sudeste 8 Oeste 0 1010.9 -1.1 96
2017-12-10 01:00:00 11.3 3 Este 5 Este 0 1011.9 0.1 96
2017-12-10 00:00:00 11.8 2 Sudeste 5 Oeste 0 1012.1 0.4 95
2017-12-09 23:00:00 11.6 0 Calma 5 Sudoeste 0 1012 1 94
2017-12-09 22:00:00 11.6 0 Calma 6 Sur 0 1011.8 0.6 92
2017-12-09 21:00:00 12.5 4 Sudeste 9 Sur 0 1011.7 0.7 90
2017-12-09 20:00:00 12.8 7 Sudeste 9 Sudeste 0 1011 0.3 87
2017-12-09 19:00:00 13.7 6 Sudoeste 15 Sudoeste 0 1011.2 0.4 84
2017-12-09 18:00:00 14.7 7 Sudoeste 21 Sudoeste 0 1011 -0.1 81
2017-12-09 17:00:00 15 11 Sudoeste 17 Sudoeste 0 1010.7 -1.1 77
2017-12-09 16:00:00 15.7 11 Sudoeste 18 Sur 0 1010.8 -1.7 76
2017-12-09 15:00:00 14.8 9 Oeste 17 Oeste 0 1011.1 -2.3 78
2017-12-09 14:00:00 14.5 8 Oeste 14 Oeste 0 1011.8 -1.7 79
2017-12-09 13:00:00 12.1 2 Sudeste 5 Este 0 1012.5 -0.6 74
2017-12-09 12:00:00 10.3 0 Calma 9 Sudeste 0 1013.4 0.9 77
2017-12-09 11:00:00 9.5 3 Este 6 Este 0 1013.5 1.4 77
2017-12-09 10:00:00 8.7 3 Sur 6 Sudoeste 0 1013.1 1.2 78
2017-12-09 09:00:00 7.8 2 Sur 5 Sur 0 1012.5 0.6 81
2017-12-09 08:00:00 7.3 0 Calma 8 Sur 0 1012.1 -0.2 81
2017-12-09 07:00:00 6.7 2 Sudeste 9 Sudeste 0 1011.9 -0.7 82
2017-12-09 06:00:00 6.3 0 Calma 8 Sur 0 1011.9 -0.9 80
2017-12-09 05:00:00 6.4 7 Sur 10 Sudoeste 0 1012.3 -0.5 80
2017-12-09 04:00:00 6 5 Sur 6 Sur 0 1012.6 -0.5 80
2017-12-09 03:00:00 6.3 0 Calma 7 Sudeste 0 1012.8 -0.7 78
2017-12-09 02:00:00 6.2 5 Sudeste 7 Sudeste 0 1012.8 -0.8 76
2017-12-09 01:00:00 6.8 0 Calma 8 Sur 0 1013.1 -0.3 74
2017-12-09 00:00:00 6.9 4 Sudeste 7 Sudeste 0 1013.5 0.1 69
2017-12-08 23:00:00 7.5 3 Sur 6 Sudeste 0 1013.6 0.3 65
2017-12-08 22:00:00 8.9 0 Calma 4 Sur 0 1013.4 0.5 57
2017-12-08 21:00:00 10.2 0 Calma 7 Sudeste 0 1013.4 0.8 52
2017-12-08 20:00:00 10.3 0 Calma 11 Sudoeste 0 1013.3 0.7 51
2017-12-08 19:00:00 12 8 Oeste 14 Oeste 0 1012.9 0.1 45
2017-12-08 18:00:00 13.8 7 Oeste 12 Sudoeste 0 1012.6 -0.4 40
2017-12-08 17:00:00 17 7 Oeste 12 Sudoeste 0 1012.6 -1.2 33
2017-12-08 16:00:00 17.4 4 Sudoeste 12 Sur 0 1012.8 -2.1 35
2017-12-08 15:00:00 16.6 3 Sudoeste 8 Sudoeste 0 1013 -2.8 38
2017-12-08 14:00:00 14.4 0 Calma 8 Este 0 1013.8 -2.3 47
2017-12-08 13:00:00 12.3 3 Norte 10 Nordeste 0 1014.9 -1 55
2017-12-08 12:00:00 10 2 Norte 7 Este 0 1015.8 0.1 65
2017-12-08 11:00:00 7.4 0 Calma 6 Nordeste 0 1016.1 0.9 76
2017-12-08 10:00:00 4.1 2 Norte 5 Norte 0 1015.9 0.5 95
2017-12-08 09:00:00 1.1 0 Calma 5 Sur 0 1015.7 0.6 99
2017-12-08 08:00:00 0.6 3 Sur 5 Sur 0 1015.2 0 98
2017-12-08 07:00:00 0.1 0 Calma 3 Este 0 1015.4 0.1 97
2017-12-08 06:00:00 1.3 0 Calma 3 Noroeste 0 1015.1 -0.1 96
2017-12-08 05:00:00 1.3 0 Calma 3 Norte 0 1015.2 -0.5 94
2017-12-08 04:00:00 2.1 2 Sudeste 7 Sudeste 0 1015.3 -0.7 93
2017-12-08 03:00:00 1.8 0 Calma 4 Oeste 0 1015.2 -0.7 90
2017-12-08 02:00:00 2.2 3 Sur 6 Sudeste 0 1015.7 -0.3 87
2017-12-08 01:00:00 3.3 2 Sudoeste 5 Sudeste 0 1016 0 86
2017-12-08 00:00:00 3.4 3 Sur 6 Sudoeste 0 1015.9 0.4 81
2017-12-07 23:00:00 4.4 3 Sudeste 8 Sudeste 0 1016 0.9 77
2017-12-07 22:00:00 4.6 0 Calma 4 Sur 0 1016 1.1 72
2017-12-07 21:00:00 6.1 2 Sudeste 4 Sur 0 1015.5 0.7 62
2017-12-07 20:00:00 7.8 0 Calma 6 Sudoeste 0 1015.1 0.5 55
2017-12-07 19:00:00 9.8 0 Calma 8 Noroeste 0 1014.9 0.3 51
2017-12-07 18:00:00 11.6 4 Noroeste 11 Nordeste 0 1014.8 0.2 46
2017-12-07 17:00:00 14.7 6 Nordeste 15 Norte 0 1014.6 -0.8 42
2017-12-07 16:00:00 15.3 8 Norte 15 Norte 0 1014.6 -1.9 43
2017-12-07 15:00:00 15.3 3 Nordeste 11 Este 0 1014.6 -2.8 46
2017-12-07 14:00:00 14.2 6 Sudeste 14 Este 0 1015.4 -2.6 49
2017-12-07 13:00:00 12.2 5 Nordeste 15 Este 0 1016.5 -1 54
2017-12-07 12:00:00 10.4 3 Nordeste 8 Este 0 1017.4 0.4 64
2017-12-07 11:00:00 6.5 2 Norte 6 Norte 0 1018 1.7 76
2017-12-07 10:00:00 4.3 0 Calma 6 Norte 0 1017.5 1.5 92
2017-12-07 09:00:00 0.6 0 Calma 3 Norte 0 1017 0.9 98
2017-12-07 08:00:00 0.7 0 Calma 3 Sudeste 0 1016.3 -0.1 98
2017-12-07 07:00:00 0.8 0 Calma 3 Sudoeste 0 1016 -0.4 97
2017-12-07 06:00:00 0.7 0 Calma 4 Noroeste 0 1016.1 -0.4 97
2017-12-07 05:00:00 0.9 0 Calma 6 Norte 0 1016.4 -0.3 96
2017-12-07 04:00:00 2 0 Calma 4 Sudoeste 0 1016.4 -0.6 94
2017-12-07 03:00:00 2.1 2 Sur 4 Sudeste 0 1016.5 -0.5 90
2017-12-07 02:00:00 2.3 0 Calma 4 Este 0 1016.7 -0.3 86
2017-12-07 01:00:00 3.4 0 Calma 4 Noroeste 0 1017 0.3 83
2017-12-07 00:00:00 3.5 0 Calma 4 Norte 0 1017 0.5 78
2017-12-06 23:00:00 5.8 0 Calma 5 Sur 0 1017 0.7 71
2017-12-06 22:00:00 6.2 3 Sur 5 Sur 0 1016.7 0.7 67
2017-12-06 21:00:00 7.2 0 Calma 3 Sur 0 1016.5 0.8 63
2017-12-06 20:00:00 8.8 0 Calma 7 Sudeste 0 1016.3 0.8 57
2017-12-06 19:00:00 9.7 0 Calma 4 Nordeste 0 1016 0.4 53
2017-12-06 18:00:00 12.5 3 Nordeste 12 Este 0 1015.7 -0.2 46
2017-12-06 17:00:00 15.2 6 Este 12 Nordeste 0 1015.5 -1 44
2017-12-06 16:00:00 15.8 4 Norte 11 Este 0 1015.6 -2 45
2017-12-06 15:00:00 15.3 4 Este 15 Este 0 1015.9 -2.6 46
2017-12-06 14:00:00 14.3 8 Este 20 Este 0 1016.5 -2.8 48
2017-12-06 13:00:00 13.3 8 Sudeste 17 Este 0 1017.6 -1.3 51
2017-12-06 12:00:00 10.6 5 Este 10 Nordeste 0 1018.5 -0.3 62
2017-12-06 11:00:00 8.1 5 Nordeste 9 Nordeste 0 1019.3 0.7 73
2017-12-06 10:00:00 4.2 4 Sudeste 10 Este 0 1018.9 0.7 84
2017-12-06 09:00:00 2.1 0 Calma 3 Sudeste 0 1018.8 0.7 91
2017-12-06 08:00:00 1.2 0 Calma 6 Este 0 1018.6 0.5 91
2017-12-06 07:00:00 1.5 3 Sudeste 6 Sudeste 0 1018.2 -0.2 91
2017-12-06 06:00:00 1.1 4 Sudeste 6 Sudeste 0 1018.1 -0.4 91
2017-12-06 05:00:00 1.5 2 Sur 4 Sudeste 0 1018.1 -0.5 91
2017-12-06 04:00:00 1.8 0 Calma 3 Sudeste 0 1018.4 -0.5 90
2017-12-06 03:00:00 2.1 0 Calma 5 Sudeste 0 1018.5 -0.2 89
2017-12-06 02:00:00 3.4 3 Sudeste 4 Sudeste 0 1018.6 0 89
2017-12-06 01:00:00 3.6 2 Este 5 Este 0 1018.9 0.1 85
2017-12-06 00:00:00 4.9 0 Calma 6 Sur 0 1018.7 0 77
2017-12-05 23:00:00 5.6 5 Sur 7 Sur 0 1018.6 0.4 67
2017-12-05 22:00:00 6.5 3 Sur 5 Sur 0 1018.8 0.9 59
2017-12-05 21:00:00 7.1 0 Calma 5 Sur 0 1018.7 1.2 57
2017-12-05 20:00:00 8.5 5 Sur 13 Sur 0 1018.2 0.9 51
2017-12-05 19:00:00 10.9 5 Este 12 Nordeste 0 1017.9 0.6 44
2017-12-05 18:00:00 12.3 5 Este 11 Este 0 1017.5 -0.1 43
2017-12-05 17:00:00 14.7 8 Este 15 Este 0 1017.3 -1 41
2017-12-05 16:00:00 15 9 Este 19 Sudeste 0 1017.3 -1.8 42
2017-12-05 15:00:00 14.6 12 Sudeste 19 Este 0 1017.6 -2.3 43
2017-12-05 14:00:00 14.1 11 Este 19 Este 0 1018.3 -1.9 45
2017-12-05 13:00:00 13.1 8 Este 21 Este 0 1019.1 -0.9 48
2017-12-05 12:00:00 10.5 9 Este 16 Este 0 1019.9 0.2 56
2017-12-05 11:00:00 7.1 3 Nordeste 9 Nordeste 0 1020.2 1 70
2017-12-05 10:00:00 3.9 0 Calma 6 Sur 0 1020 1.3 82
2017-12-05 09:00:00 1 5 Sur 8 Sudeste 0 1019.7 1.2 87
2017-12-05 08:00:00 0.3 4 Sur 7 Sur 0 1019.2 0.8 87
2017-12-05 07:00:00 0.7 3 Sudeste 6 Sudeste 0 1018.7 0.3 87
2017-12-05 06:00:00 1.2 0 Calma 6 Sudeste 0 1018.5 0 87
2017-12-05 05:00:00 1.2 3 Norte 7 Norte 0 1018.4 -0.1 87
2017-12-05 04:00:00 1.6 0 Calma 5 Sur 0 1018.4 -0.2 83
2017-12-05 03:00:00 2.8 0 Calma 7 Este 0 1018.5 -0.2 82
2017-12-05 02:00:00 3 4 Sur 8 Sudeste 0 1018.5 0.3 83
2017-12-05 01:00:00 3 2 Sur 7 Sudeste 0 1018.6 0.2 83
2017-12-05 00:00:00 4.1 0 Calma 10 Sur 0 1018.7 0.7 82
2017-12-04 23:00:00 4.1 8 Sur 10 Sur 0 1018.2 0.7 73
2017-12-04 22:00:00 5.2 3 Sur 5 Sudeste 0 1018.4 1.3 63
2017-12-04 21:00:00 6.5 2 Sur 5 Sur 0 1018 1.6 54
2017-12-04 20:00:00 7.3 0 Calma 10 Sudoeste 0 1017.5 1.5 49
2017-12-04 19:00:00 9.1 0 Calma 4 Nordeste 0 1017.1 1.3 43
2017-12-04 18:00:00 11.1 0 Calma 10 Este 0 1016.4 0.3 38
2017-12-04 17:00:00 14 6 Este 13 Este 0 1016 -0.6 34
2017-12-04 16:00:00 14.2 10 Este 19 Este 0 1015.8 -1.4 33
2017-12-04 15:00:00 13.6 12 Este 19 Este 0 1016.1 -1.7 33
2017-12-04 14:00:00 12.6 12 Este 21 Nordeste 0 1016.6 -1.5 37
2017-12-04 13:00:00 10.7 10 Este 22 Este 0 1017.2 -0.5 42
2017-12-04 12:00:00 9.2 16 Este 23 Este 0 1017.8 0.5 46
2017-12-04 11:00:00 6.5 9 Nordeste 15 Nordeste 0 1018.1 1.4 58
2017-12-04 10:00:00 3.5 5 Norte 9 Nordeste 0 1017.7 1.4 72
2017-12-04 09:00:00 0.6 0 Calma 6 Este 0 1017.3 1.4 79
2017-12-04 08:00:00 -0.8 2 Nordeste 5 Norte 0 1016.7 0.8 81
2017-12-04 07:00:00 -0.6 4 Noroeste 8 Noroeste 0 1016.3 0.1 80
2017-12-04 06:00:00 0.3 6 Este 13 Este 0 1015.9 -0.3 78
2017-12-04 05:00:00 -0.3 2 Sudeste 5 Nordeste 0 1015.9 -0.2 77
2017-12-04 04:00:00 0 3 Norte 8 Norte 0 1016.2 0.2 77
2017-12-04 03:00:00 0.2 0 Calma 5 Sur 0 1016.2 0.1 77
2017-12-04 02:00:00 0.4 0 Calma 10 Nordeste 0 1016.1 0.5 72
2017-12-04 01:00:00 1.7 5 Norte 9 Nordeste 0 1016 0.6 67
2017-12-04 00:00:00 1.6 0 Calma 9 Este 0 1016.1 1.3 66
2017-12-03 23:00:00 2.5 0 Calma 6 Norte 0 1015.6 1.2 65
2017-12-03 22:00:00 2.6 3 Norte 7 Norte 0 1015.4 1.6 60
2017-12-03 21:00:00 4.4 0 Calma 3 Norte 0 1014.8 1.4 54
2017-12-03 20:00:00 6.4 0 Calma 11 Nordeste 0 1014.4 1.6 45
2017-12-03 19:00:00 8.1 3 Nordeste 8 Norte 0 1013.8 1.4 41
2017-12-03 18:00:00 9.5 3 Nordeste 24 Nordeste 0 1013.4 0.8 37
2017-12-03 17:00:00 11 15 Nordeste 26 Nordeste 0 1012.8 -0.1 32
2017-12-03 16:00:00 11.6 14 Nordeste 29 Este 0 1012.4 -1 33
2017-12-03 15:00:00 11.4 18 Nordeste 37 Nordeste 0 1012.6 -1.4 33
2017-12-03 14:00:00 10.4 20 Nordeste 38 Nordeste 0 1012.9 -1.2 35
2017-12-03 13:00:00 9.2 24 Nordeste 40 Nordeste 0 1013.4 -0.1 39
2017-12-03 12:00:00 8.4 17 Este 26 Este 0 1014 1.3 48
2017-12-03 11:00:00 6.3 0 Calma 6 Nordeste 0 1014.1 1.8 70
2017-12-03 10:00:00 4 2 Sur 4 Sur 0 1013.5 1.6 78
2017-12-03 09:00:00 0.8 2 Sur 6 Sudeste 0 1012.7 1.6 92
2017-12-03 08:00:00 -1 0 Calma 4 Sur 0 1012.3 1.3 97
2017-12-03 07:00:00 -1.1 0 Calma 4 Sudeste 0 1011.9 1.2 97
2017-12-03 06:00:00 -1.4 0 Calma 5 Norte 0 1011.1 0.3 96
2017-12-03 05:00:00 -0.9 0 Calma 5 Norte 0 1011 0.3 95
2017-12-03 04:00:00 -0.3 2 Sur 6 Sudeste 0 1010.7 0 92
2017-12-03 03:00:00 -0.3 0 Calma 4 Sur 0 1010.8 0 90
2017-12-03 02:00:00 0.4 0 Calma 3 Sudeste 0 1010.7 0.3 86
2017-12-03 01:00:00 1 0 Calma 5 Sudoeste 0 1010.7 0.6 84
2017-12-03 00:00:00 2.5 3 Oeste 4 Oeste 0 1010.8 1 78
2017-12-02 23:00:00 2.3 0 Calma 9 Sudeste 0 1010.4 1.2 75
2017-12-02 22:00:00 3.3 2 Norte 4 Noroeste 0 1010.1 1.4 68
2017-12-02 21:00:00 4.5 0 Calma 4 Noroeste 0 1009.8 1.4 62
2017-12-02 20:00:00 6.1 4 Noroeste 6 Noroeste 0 1009.2 0.7 53
2017-12-02 19:00:00 8 0 Calma 10 Sudeste 0 1008.7 0.3 46
2017-12-02 18:00:00 9.3 0 Calma 15 Este 0 1008.4 -0.3 44
2017-12-02 17:00:00 11.1 10 Nordeste 18 Este 0 1008.5 -0.7 37
2017-12-02 16:00:00 11.5 9 Nordeste 21 Nordeste 0 1008.4 -1.5 36
2017-12-02 15:00:00 11.1 13 Nordeste 23 Nordeste 0 1008.7 -2 38
2017-12-02 14:00:00 11.1 12 Nordeste 26 Este 0 1009.2 -1.9 41
2017-12-02 13:00:00 10.2 17 Este 28 Este 0 1009.9 -0.8 45
2017-12-02 12:00:00 8.7 15 Nordeste 23 Nordeste 0 1010.7 0.4 46
2017-12-02 11:00:00 7.3 6 Nordeste 18 Nordeste 0 1011.1 1.2 60
2017-12-02 10:00:00 5 6 Nordeste 12 Nordeste 0 1010.7 1.3 70
2017-12-02 09:00:00 2.7 2 Nordeste 13 Nordeste 0 1010.3 1.4 81
2017-12-02 08:00:00 1.5 6 Noroeste 10 Norte 0 1009.9 1.4 80
2017-12-02 07:00:00 2 3 Oeste 8 Noroeste 0 1009.4 0.9 79
2017-12-02 06:00:00 2.2 4 Noroeste 8 Noroeste 0 1008.9 0.4 76
2017-12-02 05:00:00 3.6 0 Calma 10 Sur 0 1008.5 -0.2 70
2017-12-02 04:00:00 4.8 5 Nordeste 15 Sudeste 0 1008.5 0 71
2017-12-02 03:00:00 4.7 3 Sudeste 10 Sur 0 1008.5 0.3 86
2017-12-02 02:00:00 3.7 2 Sur 5 Sur 0 1008.7 1.4 83
2017-12-02 01:00:00 5.3 3 Nordeste 9 Nordeste 0 1008.5 1.8 80
2017-12-02 00:00:00 4.8 3 Norte 8 Sudeste 0 1008.2 2.3 80
2017-12-01 23:00:00 5.9 6 Norte 14 Norte 0 1007.3 1.5 75
2017-12-01 22:00:00 7.3 4 Norte 19 Oeste 0 1006.7 1.5 70
2017-12-01 21:00:00 7.8 12 Oeste 18 Sudoeste 0 1005.9 1.4 68
2017-12-01 20:00:00 7.9 12 Oeste 17 Oeste 0 1005.8 2 65
2017-12-01 19:00:00 8.7 12 Noroeste 21 Oeste 0 1005.2 1.5 60
2017-12-01 18:00:00 10.3 14 Oeste 24 Oeste 0 1004.5 0.1 55
2017-12-01 17:00:00 12.8 17 Oeste 28 Oeste 0 1003.8 -1.5 44
2017-12-01 16:00:00 13.2 14 Oeste 29 Sudoeste 0 1003.7 -2.6 45
2017-12-01 15:00:00 12.9 13 Oeste 23 Oeste 0 1004.4 -2.9 46
2017-12-01 14:00:00 12.2 8 Oeste 17 Oeste 0 1005.3 -2.4 48
2017-12-01 13:00:00 10.9 2 Este 8 Este 0 1006.3 -1.2 52
2017-12-01 12:00:00 8.5 3 Sur 8 Sur 0 1007.3 0 68
2017-12-01 11:00:00 5.9 2 Sur 5 Sudeste 0 1007.7 0.5 84
2017-12-01 10:00:00 3.2 0 Calma 5 Sur 0 1007.5 0.5 98
2017-12-01 09:00:00 0.8 3 Sur 6 Sudoeste 0 1007.3 0.3 98
2017-12-01 08:00:00 -0.3 0 Calma 4 Noroeste 0 1007.2 0.3 97
2017-12-01 07:00:00 0 0 Calma 4 Sudeste 0 1007 -0.2 96
2017-12-01 06:00:00 0 0 Calma 4 Sur 0 1007 0 94
2017-12-01 05:00:00 0.7 0 Calma 3 Sur 0 1006.9 0 91
2017-12-01 04:00:00 1.2 0 Calma 4 Sudoeste 0 1007.2 0.2 89
2017-12-01 03:00:00 1.4 0 Calma 3 Norte 0 1007 0.1 87
2017-12-01 02:00:00 2.3 0 Calma 8 Sudoeste 0 1006.9 0.5 82
2017-12-01 01:00:00 3 3 Sur 10 Noroeste 0 1007 1.1 78
2017-12-01 00:00:00 4.1 0 Calma 8 Oeste 0 1006.9 1.7 70
2017-11-30 23:00:00 5.2 4 Oeste 10 Sudoeste 0 1006.4 2.1 65
2017-11-30 22:00:00 7.2 4 Norte 12 Sudeste 0 1005.9 2.8 55
2017-11-30 21:00:00 7.4 5 Norte 13 Noroeste 0 1005.2 3.5 55
2017-11-30 20:00:00 7.5 6 Noroeste 10 Noroeste 0 1004.3 3.7 56
2017-11-30 19:00:00 9.7 7 Norte 14 Norte 0 1003.1 3.1 44
2017-11-30 18:00:00 11.9 4 Nordeste 16 Norte 0 1001.7 2.3 40
2017-11-30 17:00:00 13.4 11 Nordeste 21 Nordeste 0 1000.6 1.2 38
2017-11-30 16:00:00 13.9 10 Nordeste 23 Nordeste 0 1000 0.5 38
2017-11-30 15:00:00 13.8 9 Nordeste 28 Nordeste 0 999.4 -0.1 38
2017-11-30 14:00:00 13.1 14 Nordeste 32 Este 0 999.4 0.5 38
2017-11-30 13:00:00 12.1 19 Nordeste 32 Nordeste 0 999.5 1.4 41
2017-11-30 12:00:00 11.8 12 Nordeste 27 Nordeste 0 999.5 2.4 48
2017-11-30 11:00:00 11.1 7 Nordeste 15 Nordeste 0 998.9 2.9 61
2017-11-30 10:00:00 9.4 5 Nordeste 14 Norte 0 998.1 3 70
2017-11-30 09:00:00 7.8 5 Norte 19 Nordeste 0 997.1 2.6 77
2017-11-30 08:00:00 5.8 4 Norte 13 Noroeste 0 996 1.6 91
2017-11-30 07:00:00 6.2 9 Noroeste 12 Norte 0 995.1 0.8 89
2017-11-30 06:00:00 6.6 6 Norte 10 Noroeste 0 994.5 0.3 92
2017-11-30 05:00:00 6.4 8 Noroeste 11 Noroeste 0 994.4 0.3 98
2017-11-30 04:00:00 6.6 6 Norte 8 Noroeste 0 994.3 0.2 97
2017-11-30 03:00:00 7.2 8 Noroeste 9 Norte 0 994.2 -0.2 95
2017-11-30 02:00:00 7.7 6 Noroeste 9 Noroeste 0 994.1 0.1 91
2017-11-30 01:00:00 8.5 5 Noroeste 12 Norte 0 994.1 0.4 88
2017-11-30 00:00:00 9.6 4 Norte 18 Noroeste 0 994.4 1 84
2017-11-29 23:00:00 9.7 12 Noroeste 16 Noroeste 0 994 1.1 84
2017-11-29 22:00:00 10.5 13 Noroeste 24 Norte 0 993.7 1.2 80
2017-11-29 21:00:00 12 18 Norte 25 Norte 0 993.4 1.5 73
2017-11-29 20:00:00 12.8 10 Norte 19 Norte 0 992.9 1.6 75
2017-11-29 19:00:00 13.2 10 Noroeste 13 Norte 0 992.5 1.8 83
2017-11-29 18:00:00 15.1 6 Noroeste 17 Norte 0 991.9 1.3 79
2017-11-29 17:00:00 16.4 10 Norte 17 Norte 0 991.3 0.3 76
2017-11-29 16:00:00 16 10 Norte 26 Norte 0.1 990.7 -0.5 79
2017-11-29 15:00:00 15.9 17 Norte 25 Norte 0.5 990.6 -1.4 88
2017-11-29 14:00:00 16.9 15 Norte 22 Noroeste 0 991 -1.2 88
2017-11-29 13:00:00 16.4 14 Noroeste 19 Noroeste 0 991.2 -1.2 99
2017-11-29 12:00:00 16.3 12 Oeste 19 Oeste 0 992 -0.5 99
2017-11-29 11:00:00 16 12 Oeste 26 Oeste 0.4 992.2 0.3 99
2017-11-29 10:00:00 15.5 14 Oeste 24 Oeste 0.7 992.4 0.2 99
2017-11-29 09:00:00 15.1 18 Sudoeste 26 Sudoeste 0 992.5 -- 99
2017-11-29 08:00:00 14.9 14 Sudoeste 25 Sudoeste 0.2 991.9 -- 99
2017-11-29 07:00:00 14.4 15 Sudoeste -- -- -- 992.2 -0.5 99
2017-11-29 06:00:00 -- -- -- -- -- -- -- -- --
2017-11-29 05:00:00 -- -- -- -- -- -- -- -- --
2017-11-29 04:00:00 13.9 5 Sudeste 10 Sudeste 4.8 992.7 -2.5 99
2017-11-29 03:00:00 13.9 2 Sudeste 9 Sur 0.3 993.4 -2.2 99
2017-11-29 02:00:00 14 0 Calma 28 Norte 8.7 994.5 -2.4 99
2017-11-29 01:00:00 15.6 5 Oeste 9 Oeste 0.8 995.2 -2.6 99
2017-11-29 00:00:00 14 8 Sudeste 10 Sudeste 0.6 995.6 -2.6 96
2017-11-28 23:00:00 14.2 3 Sur 8 Sudoeste 0 996.9 -2.2 95
2017-11-28 22:00:00 14.4 7 Sudoeste 8 Sur 0 997.8 -1.3 94
2017-11-28 21:00:00 14.6 3 Sur 5 Sur 0 998.2 -1.2 91
2017-11-28 20:00:00 14.6 3 Sur 6 Sudoeste 0.1 999.1 -0.6 90
2017-11-28 19:00:00 15.1 3 Norte 12 Noroeste 0.5 999.1 -1.1 86
2017-11-28 18:00:00 17.1 5 Noroeste 8 Noroeste 0 999.4 -1.8 72
2017-11-28 17:00:00 18.5 2 Nordeste 7 Este 0 999.7 -2.4 62
2017-11-28 16:00:00 18.2 4 Este 12 Sudeste 0 1000.2 -3.3 65
2017-11-28 15:00:00 17.5 5 Sudeste 8 Sudeste 0 1001.2 -3.3 65
2017-11-28 14:00:00 17.5 3 Nordeste 6 Nordeste 0 1002.1 -3 65
2017-11-28 13:00:00 17.1 2 Este 9 Sudeste 0 1003.5 -1.9 67
2017-11-28 12:00:00 16.2 7 Este 14 Este 0 1004.5 -1 75
2017-11-28 11:00:00 14.4 11 Este 15 Este 0 1005.1 -1.2 86
2017-11-28 10:00:00 12.8 5 Sudeste 10 Sudeste 0 1005.4 -0.1 89
2017-11-28 09:00:00 12.1 4 Nordeste 15 Este 0.1 1005.5 -0.2 91
2017-11-28 08:00:00 11.6 0 Calma 8 Este 0 1006.3 -0.2 93
2017-11-28 07:00:00 11.5 4 Este 9 Sudeste 0 1005.5 -1.7 93
2017-11-28 06:00:00 11.3 4 Sudeste 9 Sudeste 0 1005.7 -2.5 94
2017-11-28 05:00:00 11.5 0 Calma 7 Sudeste 0.2 1006.5 -1.9 94
2017-11-28 04:00:00 11.2 8 Sudeste 13 Sudeste 0.6 1007.2 -1.7 91
2017-11-28 03:00:00 12 2 Sudoeste 4 Sudeste 0 1008.2 -0.9 83
2017-11-28 02:00:00 11.8 0 Calma 4 Sudoeste 0 1008.4 -0.9 82
2017-11-28 01:00:00 11.7 0 Calma 8 Sudeste 0 1008.9 -0.6 82
2017-11-28 00:00:00 13.1 9 Sudeste 12 Sur 0 1009.1 -0.4 80
2017-11-27 23:00:00 13.7 10 Sur 18 Sur 0 1009.3 -0.3 76
2017-11-27 22:00:00 13.8 10 Sur 16 Sudoeste 0 1009.5 -0.1 73
2017-11-27 21:00:00 15 9 Sur 18 Sur 0 1009.5 0.2 71
2017-11-27 20:00:00 15.5 6 Sudoeste 10 Sudoeste 0 1009.6 0.2 70
2017-11-27 19:00:00 16.1 6 Sur 15 Sudoeste 0 1009.6 0.1 68
2017-11-27 18:00:00 17 10 Sur 16 Sudeste 0 1009.3 -0.5 65
2017-11-27 17:00:00 18.6 10 Sur 20 Sur 0 1009.4 -1 62
2017-11-27 16:00:00 19.1 14 Sudeste 20 Sudeste 0 1009.5 -2.3 62
2017-11-27 15:00:00 19.6 10 Sudeste 19 Sur 0 1009.8 -2.6 61
2017-11-27 14:00:00 19.8 5 Este 11 Este 0 1010.4 -2.6 62
2017-11-27 13:00:00 17.7 0 Calma 10 Sudeste 0 1011.8 -1.2 67
2017-11-27 12:00:00 16.3 6 Este 12 Este 0 1012.4 0 70
2017-11-27 11:00:00 13.3 2 Nordeste 8 Norte 0 1013 0.7 70
2017-11-27 10:00:00 9.8 2 Norte 6 Norte 0 1013 1.4 76
2017-11-27 09:00:00 7.9 0 Calma 3 Oeste 0 1012.4 0.7 78
2017-11-27 08:00:00 8 0 Calma 6 Sur 0 1012.3 0.8 79
2017-11-27 07:00:00 8 3 Sudeste 6 Sudeste 0 1011.6 -0.2 79
2017-11-27 06:00:00 8.2 3 Sudoeste 6 Sur 0 1011.7 0.3 71
2017-11-27 05:00:00 8.5 5 Noroeste 8 Norte 0 1011.5 0 70
2017-11-27 04:00:00 8.7 4 Norte 6 Norte 0 1011.8 0.3 73
2017-11-27 03:00:00 9.8 5 Noroeste 9 Norte 0 1011.4 -0.3 73
2017-11-27 02:00:00 10.6 5 Noroeste 7 Norte 0 1011.5 -0.2 77
2017-11-27 01:00:00 11.6 0 Calma 8 Sur 0 1011.5 0.1 72
2017-11-27 00:00:00 12.5 4 Sudeste 9 Sudeste 0 1011.7 0.3 71
2017-11-26 23:00:00 13.3 0 Calma 6 Nordeste 0 1011.7 0.3 64
2017-11-26 22:00:00 13.6 0 Calma 6 Norte 0 1011.4 0.4 58
2017-11-26 21:00:00 13.8 0 Calma 8 Sur 0 1011.4 0.7 56
2017-11-26 20:00:00 15.5 3 Sudeste 12 Este 0 1011.4 1.3 53
2017-11-26 19:00:00 17.4 2 Este 10 Este 0 1011 1.1 49
2017-11-26 18:00:00 18 2 Norte 10 Nordeste 0 1010.7 0.7 48
2017-11-26 17:00:00 20 7 Nordeste 14 Nordeste 0 1010.1 -0.5 46
2017-11-26 16:00:00 20.7 8 Nordeste 21 Nordeste 0 1009.9 -1.3 46
2017-11-26 15:00:00 21.2 12 Nordeste 20 Nordeste 0 1010 -1.8 48
2017-11-26 14:00:00 20.4 9 Nordeste 23 Este 0 1010.6 -1.4 51
2017-11-26 13:00:00 18.6 14 Nordeste 28 Este 0 1011.2 -0.4 54
2017-11-26 12:00:00 16.6 22 Este 30 Este 0 1011.8 0.8 62
2017-11-26 11:00:00 13.9 0 Calma 7 Este 0 1012 2 68
2017-11-26 10:00:00 11.5 0 Calma 9 Norte 0 1011.6 2.3 76
2017-11-26 09:00:00 8.6 4 Norte 6 Norte 0 1011 1.7 79
2017-11-26 08:00:00 8.8 0 Calma 6 Noroeste 0 1010 1.3 79
2017-11-26 07:00:00 8.8 0 Calma 3 Norte 0 1009.3 0.3 76
2017-11-26 06:00:00 9.1 2 Norte 6 Norte 0 1009.3 0.7 75
2017-11-26 05:00:00 9.7 4 Sudoeste 5 Sudoeste 0 1008.7 0.4 74
2017-11-26 04:00:00 9.4 0 Calma 3 Norte 0 1009 0.7 73
2017-11-26 03:00:00 10.6 2 Sur 4 Sur 0 1008.6 0.2 70
2017-11-26 02:00:00 11.3 0 Calma 7 Noroeste 0 1008.3 0.3 67
2017-11-26 01:00:00 12.2 2 Sudoeste 10 Sudoeste 0 1008.3 0.6 67
2017-11-26 00:00:00 13.3 0 Calma 5 Norte 0 1008.4 0.9 63
2017-11-25 23:00:00 12.7 0 Calma 5 Sudeste 0 1008 0.8 65
2017-11-25 22:00:00 13 2 Sur 4 Sudeste 0 1007.7 1 65
2017-11-25 21:00:00 12.8 0 Calma 6 Sudoeste 0 1007.5 1.3 61
2017-11-25 20:00:00 14.3 5 Sur 6 Sur 0 1007.2 1.1 57
2017-11-25 19:00:00 16.2 0 Calma 4 Sudoeste 0 1006.7 1.5 53
2017-11-25 18:00:00 17.9 0 Calma 12 Noroeste 0 1006.2 1 52
2017-11-25 17:00:00 19.3 3 Norte 9 Norte 0 1006.1 0.2 48
2017-11-25 16:00:00 18.9 0 Calma 10 Norte 0 1005.2 -1.1 49
2017-11-25 15:00:00 18 6 Norte 15 Noroeste 0 1005.2 -1.3 49
2017-11-25 14:00:00 18.9 7 Oeste 13 Oeste 0 1005.9 -0.8 46
2017-11-25 13:00:00 17.1 3 Sur 8 Sur 0 1006.3 -0.2 53
2017-11-25 12:00:00 15.3 4 Sur 7 Sur 0 1006.5 0.5 59
2017-11-25 11:00:00 13.4 0 Calma 5 Norte 0 1006.7 1 61
2017-11-25 10:00:00 11.5 2 Norte 6 Nordeste 0 1006.5 0.9 65
2017-11-25 09:00:00 8.1 0 Calma 5 Sudeste 0 1006 0.7 74
2017-11-25 08:00:00 6.3 0 Calma 3 Sur 0 1005.7 0.1 75
2017-11-25 07:00:00 6.6 0 Calma 2 Este 0 1005.6 0.2 76
2017-11-25 06:00:00 6.5 0 Calma 4 Sudeste 0 1005.3 -0.3 75
2017-11-25 05:00:00 7.6 2 Sudeste 6 Sur 0 1005.6 0.1 73
2017-11-25 04:00:00 6.7 2 Sur 5 Este 0 1005.4 -0.1 71
2017-11-25 03:00:00 7.8 0 Calma 4 Sudeste 0 1005.6 0.2 64
2017-11-25 02:00:00 8.8 3 Sur 6 Sur 0 1005.5 -0.2 62
2017-11-25 01:00:00 10.1 0 Calma 6 Sur 0 1005.5 0 60
2017-11-25 00:00:00 10.2 3 Sur 7 Sur 0 1005.4 -0.1 57
2017-11-24 23:00:00 11 4 Sur 6 Sur 0 1005.7 0.5 55
2017-11-24 22:00:00 11.3 0 Calma 8 Sur 0 1005.5 0.7 51
2017-11-24 21:00:00 13.4 0 Calma 4 Oeste 0 1005.5 0.8 48
2017-11-24 20:00:00 14.5 4 Sur 8 Sur 0 1005.2 0.5 46
2017-11-24 19:00:00 17.5 0 Calma 11 Oeste 0 1004.8 0.4 39
2017-11-24 18:00:00 20.8 9 Oeste 14 Oeste 0 1004.7 0.1 33
2017-11-24 17:00:00 24 7 Oeste 15 Oeste 0 1004.7 -0.5 31
2017-11-24 16:00:00 25.1 6 Oeste 17 Oeste 0 1004.4 -1.4 31
2017-11-24 15:00:00 24.8 6 Oeste 19 Noroeste 0 1004.6 -2 33
2017-11-24 14:00:00 23.3 0 Calma 5 Sudeste 0 1005.2 -1.7 38
2017-11-24 13:00:00 20.9 0 Calma 5 Este 0 1005.8 -1 44
2017-11-24 12:00:00 18.5 3 Este 8 Este 0 1006.6 0 50
2017-11-24 11:00:00 15.8 0 Calma 5 Este 0 1006.9 0.7 56
2017-11-24 10:00:00 12.2 0 Calma 5 Sur 0 1006.8 1.1 65
2017-11-24 09:00:00 7.6 0 Calma 2 Oeste 0 1006.6 1.2 73
2017-11-24 08:00:00 7.2 0 Calma 5 Norte 0 1006.2 0.7 72
2017-11-24 07:00:00 8.3 0 Calma 3 Norte 0 1005.7 0.2 69
2017-11-24 06:00:00 8.6 0 Calma 4 Sur 0 1005.4 -0.2 67
2017-11-24 05:00:00 9.9 0 Calma 5 Sur 0 1005.5 -0.2 65
2017-11-24 04:00:00 10.3 5 Sur 8 Sur 0 1005.5 -0.4 63
2017-11-24 03:00:00 11 0 Calma 4 Sur 0 1005.6 -0.1 61
2017-11-24 02:00:00 10.9 0 Calma 9 Noroeste 0 1005.7 0 60
2017-11-24 01:00:00 12.2 0 Calma 8 Sudeste 0 1005.9 0 60
2017-11-24 00:00:00 12.1 3 Sur 6 Oeste 0 1005.7 0.1 58
2017-11-23 23:00:00 11.9 6 Sudeste 9 Sudeste 0 1005.7 0.3 59
2017-11-23 22:00:00 12.3 2 Sudeste 8 Sudeste 0 1005.9 1.1 55
2017-11-23 21:00:00 12.8 0 Calma 10 Sudeste 0 1005.6 1.5 49
2017-11-23 20:00:00 14.6 0 Calma 7 Oeste 0 1005.4 1.5 41
2017-11-23 19:00:00 16.7 0 Calma 12 Oeste 0 1004.8 0.9 36
2017-11-23 18:00:00 19.7 3 Sudoeste 7 Oeste 0 1004.1 0.2 33
2017-11-23 17:00:00 22.5 4 Oeste 11 Sudoeste 0 1003.9 -0.5 31
2017-11-23 16:00:00 24 6 Sudoeste 13 Noroeste 0 1003.9 -1.1 31
2017-11-23 15:00:00 23.3 2 Sudeste 9 Norte 0 1003.9 -1.7 33
2017-11-23 14:00:00 22.2 0 Calma 8 Norte 0 1004.4 -1.3 36
2017-11-23 13:00:00 20.1 2 Nordeste 9 Este 0 1005 -0.5 43
2017-11-23 12:00:00 17 3 Este 10 Sudeste 0 1005.6 0.8 49
2017-11-23 11:00:00 13.5 0 Calma 8 Sudeste 0 1005.7 1.5 60
2017-11-23 10:00:00 9.2 5 Sudeste 9 Sudeste 0 1005.5 2.2 70
2017-11-23 09:00:00 7.1 4 Sur 5 Sudoeste 0 1004.8 1.9 76
2017-11-23 08:00:00 5.3 0 Calma 4 Sur 0 1004.2 1.7 75
2017-11-23 07:00:00 4.9 0 Calma 3 Sur 0 1003.3 0.9 74
2017-11-23 06:00:00 5.5 0 Calma 5 Sur 0 1002.9 0.7 73
2017-11-23 05:00:00 6 0 Calma 4 Nordeste 0 1002.5 0.3 71
2017-11-23 04:00:00 5.8 0 Calma 5 Sur 0 1002.4 0.1 68
2017-11-23 03:00:00 7 4 Sudeste 8 Sur 0 1002.2 0 68
2017-11-23 02:00:00 7.1 0 Calma 6 Sudoeste 0 1002.2 0 67
2017-11-23 01:00:00 7.7 7 Sudeste 10 Sudeste 0 1002.3 0.5 65
2017-11-23 00:00:00 7.7 3 Sur 7 Sudeste 0 1002.2 0.9 63
2017-11-22 23:00:00 9.3 5 Sur 8 Sudeste 0 1002.2 1.2 59
2017-11-22 22:00:00 10.1 0 Calma 9 Sur 0 1001.8 1.3 55
2017-11-22 21:00:00 11.1 4 Sudeste 6 Sudeste 0 1001.3 1.3 51
2017-11-22 20:00:00 13 0 Calma 7 Oeste 0 1001 1.1 47
2017-11-22 19:00:00 15.8 5 Noroeste 9 Noroeste 0 1000.5 0.7 42
2017-11-22 18:00:00 17.5 5 Noroeste 14 Noroeste 0 1000 0.1 38
2017-11-22 17:00:00 21.2 10 Noroeste 21 Oeste 0 999.9 -0.8 32
2017-11-22 16:00:00 22.4 10 Oeste 16 Oeste 0 999.8 -1.7 33
2017-11-22 15:00:00 22.1 4 Sudeste 11 Sudeste 0 999.9 -2.9 35
2017-11-22 14:00:00 20.8 0 Calma 12 Sur 0 1000.7 -2.6 38
2017-11-22 13:00:00 18.6 4 Este 12 Este 0 1001.5 -1.8 44
2017-11-22 12:00:00 16.1 0 Calma 8 Este 0 1002.8 0.4 49
2017-11-22 11:00:00 12.7 0 Calma 4 Este 0 1003.3 1 57
2017-11-22 10:00:00 7.9 0 Calma 4 Noroeste 0 1003.3 1.2 69
2017-11-22 09:00:00 4.5 3 Oeste 5 Oeste 0 1002.4 0.1 78
2017-11-22 08:00:00 3.6 3 Sur 5 Sudoeste 0 1002.3 -0.1 78
2017-11-22 07:00:00 3.7 0 Calma 6 Sudeste 0 1002.1 -0.8 78
2017-11-22 06:00:00 4.5 0 Calma 8 Sudeste 0 1002.3 -1.1 76
2017-11-22 05:00:00 4 3 Sudeste 4 Sudeste 0 1002.4 -1.3 74
2017-11-22 04:00:00 4.2 0 Calma 4 Sur 0 1002.9 -1.1 70
2017-11-22 03:00:00 6.1 0 Calma 6 Sur 0 1003.4 -0.9 67
2017-11-22 02:00:00 6.1 2 Sur 4 Sur 0 1003.7 -0.4 67
2017-11-22 01:00:00 6.3 0 Calma 7 Sudeste 0 1004 -0.3 64
2017-11-22 00:00:00 7.5 3 Sudeste 8 Sudoeste 0 1004.3 0.1 61
2017-11-21 23:00:00 8.9 0 Calma 4 Oeste 0 1004.1 -0.1 54
2017-11-21 22:00:00 9.6 3 Sudeste 9 Sudoeste 0 1004.3 0.5 52
2017-11-21 21:00:00 12.1 8 Sudoeste 10 Sudoeste 0 1004.2 0.8 45
2017-11-21 20:00:00 14.3 0 Calma 6 Sudoeste 0 1004.2 0.4 38
2017-11-21 19:00:00 16.9 4 Noroeste 5 Noroeste 0 1003.8 -0.1 33
2017-11-21 18:00:00 19.9 0 Calma 6 Nordeste 0 1003.4 -0.9 31
2017-11-21 17:00:00 23.5 0 Calma 8 Nordeste 0 1003.8 -1.3 30
2017-11-21 16:00:00 23.7 4 Sudeste 9 Sudeste 0 1003.9 -2.1 31
2017-11-21 15:00:00 23.3 3 Este 14 Nordeste 0 1004.3 -2.9 32
2017-11-21 14:00:00 22.3 4 Nordeste 15 Este 0 1005.1 -2.5 33
2017-11-21 13:00:00 20.1 8 Este 15 Este 0 1006 -1.9 40
2017-11-21 12:00:00 17.6 3 Este 10 Nordeste 0 1007.2 -0.3 47
2017-11-21 11:00:00 14.4 3 Nordeste 9 Este 0 1007.6 0.4 54
2017-11-21 10:00:00 10.5 0 Calma 3 Norte 0 1007.9 0.9 65
2017-11-21 09:00:00 7.1 0 Calma 6 Este 0 1007.5 0.5 77
2017-11-21 08:00:00 4 0 Calma 5 Norte 0 1007.2 0.1 78
2017-11-21 07:00:00 4.2 0 Calma 3 Norte 0 1007 -0.2 76
2017-11-21 06:00:00 5.2 0 Calma 10 Sudeste 0 1007 -0.6 75
2017-11-21 05:00:00 6.5 0 Calma 6 Sudoeste 0 1007.1 0 72
2017-11-21 04:00:00 6.1 2 Sur 5 Sur 0 1007.2 -0.2 70
2017-11-21 03:00:00 7.1 0 Calma 5 Este 0 1007.6 0.1 65
2017-11-21 02:00:00 7.9 0 Calma 4 Sudeste 0 1007.1 -0.2 60
2017-11-21 01:00:00 8.9 0 Calma 6 Sur 0 1007.4 0.3 55
2017-11-21 00:00:00 10.2 3 Sudeste 8 Sudeste 0 1007.5 0.6 54
2017-11-20 23:00:00 11 3 Sur 7 Sur 0 1007.3 0.7 52
2017-11-20 22:00:00 11.4 7 Sudeste 12 Sudeste 0 1007.1 1.2 51
2017-11-20 21:00:00 13.4 0 Calma 8 Sur 0 1006.9 1.2 44
2017-11-20 20:00:00 14.5 4 Sur 8 Sur 0 1006.6 0.8 42
2017-11-20 19:00:00 16.4 5 Sur 8 Sudoeste 0 1005.9 0 38
2017-11-20 18:00:00 20.1 0 Calma 12 Este 0 1005.7 -0.5 35
2017-11-20 17:00:00 22.1 10 Este 17 Nordeste 0 1005.8 -1.1 35
2017-11-20 16:00:00 22.6 10 Este 19 Este 0 1005.9 -1.8 35
2017-11-20 15:00:00 22.1 12 Este 21 Este 0 1006.2 -2.4 36
2017-11-20 14:00:00 21.4 9 Este 17 Este 0 1006.9 -1.8 38
2017-11-20 13:00:00 19.4 11 Este 17 Este 0 1007.7 -0.8 44
2017-11-20 12:00:00 17 10 Nordeste 17 Este 0 1008.6 0.5 51
2017-11-20 11:00:00 13.8 7 Este 10 Este 0 1008.7 1 64
2017-11-20 10:00:00 10.5 4 Sur 8 Sur 0 1008.5 1.2 74
2017-11-20 09:00:00 7.1 0 Calma 4 Noroeste 0 1008.1 1 92
2017-11-20 08:00:00 5.5 0 Calma 5 Sur 0 1007.7 0.9 96
2017-11-20 07:00:00 5.2 0 Calma 7 Sudoeste 0 1007.3 0.5 95
2017-11-20 06:00:00 5.1 0 Calma 5 Norte 0 1007.1 0.1 93
2017-11-20 05:00:00 5.3 0 Calma 5 Sur 0 1006.8 -0.2 93
2017-11-20 04:00:00 6.5 0 Calma 3 Sudeste 0 1006.8 -0.3 89
2017-11-20 03:00:00 7.4 0 Calma 4 Sur 0 1007 -0.1 88
2017-11-20 02:00:00 7.7 0 Calma 8 Sur 0 1007 0 84
2017-11-20 01:00:00 9.5 5 Sur 8 Sur 0 1007.1 0.5 82
2017-11-20 00:00:00 10 2 Sudeste 5 Sudeste 0 1007.1 1.2 77
2017-11-19 23:00:00 10.5 2 Sur 5 Sudeste 0 1007 1.3 67
2017-11-19 22:00:00 11.9 3 Sudeste 6 Sudeste 0 1006.6 1.5 65
2017-11-19 21:00:00 12.5 0 Calma 8 Sudoeste 0 1005.9 1.4 62
2017-11-19 20:00:00 13.9 5 Sur 15 Sudoeste 0 1005.7 1.4 60
2017-11-19 19:00:00 16.4 13 Sudoeste 17 Sudoeste 0 1005.1 1 53
2017-11-19 18:00:00 18.5 10 Sur 13 Sur 0 1004.5 0.1 50
2017-11-19 17:00:00 21.1 7 Este 11 Este 0 1004.3 -0.7 43
2017-11-19 16:00:00 21.9 6 Este 17 Este 0 1004.1 -1.8 38
2017-11-19 15:00:00 21.4 6 Nordeste 15 Sudeste 0 1004.4 -2.3 38
2017-11-19 14:00:00 20.7 6 Este 15 Nordeste 0 1005 -1.7 42
2017-11-19 13:00:00 18.5 9 Nordeste 16 Este 0 1005.9 -0.7 44
2017-11-19 12:00:00 16.8 11 Nordeste 18 Este 0 1006.7 0.6 49
2017-11-19 11:00:00 14.3 8 Este 16 Este 0 1006.7 1.2 63
2017-11-19 10:00:00 10.6 0 Calma 5 Sudeste 0 1006.6 1.5 73
2017-11-19 09:00:00 7.6 0 Calma 5 Norte 0 1006.1 1.6 87
2017-11-19 08:00:00 4.1 2 Norte 5 Norte 0 1005.5 1 86
2017-11-19 07:00:00 4.4 0 Calma 5 Sudeste 0 1005.1 0.5 84
2017-11-19 06:00:00 5.2 2 Sur 7 Sur 0 1004.5 -0.1 84
2017-11-19 05:00:00 5.5 5 Sur 6 Sur 0 1004.5 0.4 81
2017-11-19 04:00:00 6.4 0 Calma 3 Sur 0 1004.6 0.2 78
2017-11-19 03:00:00 7.1 2 Este 4 Este 0 1004.6 0.4 73
2017-11-19 02:00:00 7.8 3 Sudeste 9 Sur 0 1004.1 -0.3 71
2017-11-19 01:00:00 8.8 4 Sudeste 6 Sudeste 0 1004.4 0.2 68
2017-11-19 00:00:00 8.7 4 Sur 5 Sur 0 1004.2 0.5 65
2017-11-18 23:00:00 8.7 0 Calma 7 Sudeste 0 1004.4 0.9 62
2017-11-18 22:00:00 10.7 0 Calma 5 Sudeste 0 1004.2 1.2 57
2017-11-18 21:00:00 12.1 2 Sudeste 10 Sudoeste 0 1003.7 1.3 49
2017-11-18 20:00:00 13.6 0 Calma 6 Oeste 0 1003.5 1 46
2017-11-18 19:00:00 15.9 3 Sudoeste 8 Sudoeste 0 1003 0.6 39
2017-11-18 18:00:00 19.3 2 Oeste 5 Sudoeste 0 1002.4 -0.2 34
2017-11-18 17:00:00 22.3 0 Calma 6 Sur 0 1002.5 -0.8 34
2017-11-18 16:00:00 21.9 3 Sur 12 Nordeste 0 1002.4 -1.6 35
2017-11-18 15:00:00 21.3 4 Norte 10 Norte 0 1002.6 -2.4 36
2017-11-18 14:00:00 20.9 3 Sudeste 16 Este 0 1003.3 -2 39
2017-11-18 13:00:00 19.1 7 Este 15 Sudeste 0 1004 -1.4 44
2017-11-18 12:00:00 16.7 0 Calma 9 Este 0 1005 -0.1 54
2017-11-18 11:00:00 12.9 0 Calma 6 Sudeste 0 1005.3 0.6 63
2017-11-18 10:00:00 9.6 2 Sur 4 Sudoeste 0 1005.4 1 76
2017-11-18 09:00:00 5.6 3 Sur 4 Sudoeste 0 1005.1 0.9 90
2017-11-18 08:00:00 3.6 0 Calma -- -- 0 1004.7 0.5 89
2017-11-18 07:00:00 3.3 0 Calma 5 Norte 0 1004.4 0 88
2017-11-18 06:00:00 4.2 3 Sur 5 Sudoeste 0 1004.2 -0.2 88
2017-11-18 05:00:00 4.9 0 Calma 2 Sur 0 1004.2 -0.2 85
2017-11-18 04:00:00 5.1 0 Calma -- -- 0 1004.4 -0.3 82
2017-11-18 03:00:00 5.4 0 Calma 0 Calma 0 1004.4 -0.1 78
2017-11-18 02:00:00 6.9 0 Calma 5 Sudeste 0 1004.4 -0.2 77
2017-11-18 01:00:00 7.2 0 Calma 7 Sudeste 0 1004.7 0.5 72
2017-11-18 00:00:00 7.9 3 Sudeste 11 Sudeste 0 1004.5 0.6 70
2017-11-17 23:00:00 9.1 5 Sur 6 Sur 0 1004.6 1.1 69
2017-11-17 22:00:00 9.6 0 Calma 7 Sur 0 1004.2 1 57
2017-11-17 21:00:00 11 2 Sur 6 Sur 0 1003.9 1.2 50
2017-11-17 20:00:00 13.5 0 Calma 4 Noroeste 0 1003.5 1 43
2017-11-17 19:00:00 15.3 2 Oeste 10 Oeste 0 1003.2 0.3 39
2017-11-17 18:00:00 18 6 Sudoeste 8 Sudoeste 0 1002.7 -0.7 37
2017-11-17 17:00:00 21.8 2 Sudoeste 6 Oeste 0 1002.5 -1.9 33
2017-11-17 16:00:00 21.9 2 Sudoeste 8 Nordeste 0 1002.9 -2.3 33
2017-11-17 15:00:00 20.8 0 Calma 10 Norte 0 1003.4 -2.7 36
2017-11-17 14:00:00 19.6 3 Norte 11 Norte 0 1004.4 -2 40
2017-11-17 13:00:00 18.1 4 Norte 10 Nordeste 0 1005.2 -1.1 45
2017-11-17 12:00:00 16.2 5 Este 10 Este 0 1006.1 0.2 52
2017-11-17 11:00:00 12.6 2 Nordeste 8 Nordeste 0 1006.4 0.9 64
2017-11-17 10:00:00 9.1 0 Calma 7 Sudoeste 0 1006.3 1.2 76
2017-11-17 09:00:00 5.7 0 Calma 5 Sur 0 1005.9 0.8 88
2017-11-17 08:00:00 3.7 0 Calma 3 Sudeste 0 1005.5 0.3 89
2017-11-17 07:00:00 3.6 0 Calma 2 Noroeste 0 1005.1 0 89
2017-11-17 06:00:00 3.6 0 Calma 7 Sudoeste 0 1005.1 -0.2 85
2017-11-17 05:00:00 4.4 0 Calma 0 Calma 0 1005.2 0 84
2017-11-17 04:00:00 4.7 0 Calma 6 Norte 0 1005.1 -0.4 81
2017-11-17 03:00:00 6.6 0 Calma 9 Sudeste 0 1005.3 0 80
2017-11-17 02:00:00 6.4 0 Calma 4 Sudeste 0 1005.2 0.1 77
2017-11-17 01:00:00 7.1 0 Calma 8 Sudeste 0 1005.5 0.8 76
2017-11-17 00:00:00 7.7 0 Calma 4 Sudeste 0 1005.3 0.7 69
2017-11-16 23:00:00 8.4 3 Sur 6 Sudeste 0 1005.1 0.9 65
2017-11-16 22:00:00 9.3 0 Calma 6 Noroeste 0 1004.7 1.2 54
2017-11-16 21:00:00 11.9 3 Noroeste 10 Noroeste 0 1004.6 1.6 48
2017-11-16 20:00:00 13 0 Calma 5 Sudoeste 0 1004.2 1.1 44
2017-11-16 19:00:00 16.3 6 Oeste 10 Sudoeste 0 1003.5 0.2 38
2017-11-16 18:00:00 18.4 5 Sudoeste 9 Sudoeste 0 1003 -0.6 35
2017-11-16 17:00:00 21.5 0 Calma 8 Noroeste 0 1003.1 -1.2 33
2017-11-16 16:00:00 20.9 3 Norte 10 Norte 0 1003.3 -1.8 34
2017-11-16 15:00:00 20.2 3 Noroeste 13 Norte 0 1003.6 -2.6 36
2017-11-16 14:00:00 19.4 0 Calma 9 Noroeste 0 1004.3 -2.1 45
2017-11-16 13:00:00 17.8 2 Sur 8 Este 0 1005.1 -0.9 52
2017-11-16 12:00:00 15 3 Nordeste 8 Nordeste 0 1006.2 0.6 57
2017-11-16 11:00:00 11.9 0 Calma 6 Sudeste 0 1006.4 1.3 68
2017-11-16 10:00:00 8.2 0 Calma 5 Sudeste 0 1006 1.4 80
2017-11-16 09:00:00 5.3 2 Sur 4 Sudeste 0 1005.6 1.3 91
2017-11-16 08:00:00 3 0 Calma 2 Sur 0 1005.1 0.9 90
2017-11-16 07:00:00 3.7 0 Calma 5 Sur 0 1004.6 0.1 89
2017-11-16 06:00:00 3.7 3 Sudeste 4 Sudeste 0 1004.3 0 88
2017-11-16 05:00:00 4.4 0 Calma 0 Calma 0 1004.2 0.1 84
2017-11-16 04:00:00 4.5 0 Calma 5 Sur 0 1004.5 0.5 81
2017-11-16 03:00:00 5.4 0 Calma 3 Sur 0 1004.3 0.1 79
2017-11-16 02:00:00 6.2 0 Calma 4 Sudoeste 0 1004.1 -0.1 76
2017-11-16 01:00:00 7.1 0 Calma 4 Este 0 1004 0.1 74
2017-11-16 00:00:00 8.2 2 Sur 4 Sur 0 1004.2 0.6 69
2017-11-15 23:00:00 9.2 0 Calma 2 Sur 0 1004.2 0.8 62
2017-11-15 22:00:00 9.9 0 Calma 3 Sur 0 1003.9 0.8 61
2017-11-15 21:00:00 11.6 3 Sur 6 Sur 0 1003.6 0.8 55
2017-11-15 20:00:00 13.4 2 Sur 5 Nordeste 0 1003.4 0.7 50
2017-11-15 19:00:00 14.8 2 Noroeste 6 Este 0 1003.1 0.4 47
2017-11-15 18:00:00 17.9 5 Nordeste 14 Nordeste 0 1002.8 -0.4 44
2017-11-15 17:00:00 19.9 2 Este 9 Este 0 1002.7 -1.1 44
2017-11-15 16:00:00 20.3 0 Calma 12 Sudeste 0 1002.7 -2 45
2017-11-15 15:00:00 19.9 2 Sudeste 17 Sudeste 0 1003.2 -2.8 46
2017-11-15 14:00:00 18.9 4 Este 18 Este 0 1003.8 -2.5 49
2017-11-15 13:00:00 17.5 7 Este 18 Este 0 1004.7 -1.8 53
2017-11-15 12:00:00 15.8 9 Este 14 Este 0 1006 -0.1 56
2017-11-15 11:00:00 13 8 Este 13 Este 0 1006.3 0.5 58
2017-11-15 10:00:00 9.8 4 Este 8 Nordeste 0 1006.5 1.4 65
2017-11-15 09:00:00 6.9 0 Calma 5 Sur 0 1006.1 1.4 71
2017-11-15 08:00:00 5.7 3 Sudeste 7 Sudeste 0 1005.8 1.5 73
2017-11-15 07:00:00 6 0 Calma 3 Sudoeste 0 1005.1 0.6 74
2017-11-15 06:00:00 5.1 3 Sudoeste 5 Sudoeste 0 1004.7 0.1 71
2017-11-15 05:00:00 5.1 2 Sur 6 Sudoeste 0 1004.3 0 71
2017-11-15 04:00:00 4.1 4 Sur 6 Sudoeste 0 1004.5 0 70
2017-11-15 03:00:00 4.1 0 Calma 3 Sudeste 0 1004.6 0.2 66
2017-11-15 02:00:00 4.4 4 Sur 7 Sur 0 1004.3 0.3 65
2017-11-15 01:00:00 5.3 0 Calma 4 Sur 0 1004.5 0.9 61
2017-11-15 00:00:00 5.9 0 Calma 5 Sur 0 1004.4 1.1 56